createdAt,value
2023-03-10T00:02:35.501Z,99.00
2023-03-10T00:07:37.361Z,99.20
2023-03-10T00:12:39.169Z,99.50
2023-03-10T00:17:41.305Z,99.00
2023-03-10T00:22:43.370Z,98.50
2023-03-10T00:27:45.182Z,99.50
2023-03-10T00:32:47.166Z,99.90
2023-03-10T00:37:49.009Z,99.90
2023-03-10T00:42:50.846Z,99.90
2023-03-10T00:47:52.897Z,99.90
2023-03-10T00:52:54.736Z,99.90
2023-03-10T00:57:56.545Z,99.90
2023-03-10T01:02:59.031Z,99.90
2023-03-10T01:08:00.828Z,99.90
2023-03-10T01:13:02.652Z,99.90
2023-03-10T01:18:05.273Z,99.90
2023-03-10T01:23:07.977Z,99.90
2023-03-10T01:28:10.087Z,99.90
2023-03-10T01:33:12.499Z,99.90
2023-03-10T01:38:14.384Z,99.90
2023-03-10T01:43:19.156Z,99.90
2023-03-10T01:48:22.610Z,99.90
2023-03-10T01:53:25.951Z,99.90
2023-03-10T01:58:32.139Z,99.90
2023-03-10T02:03:37.681Z,99.90
2023-03-10T02:08:44.529Z,99.90
2023-03-10T02:13:46.590Z,99.90
2023-03-10T02:18:49.512Z,99.90
2023-03-10T02:24:01.985Z,99.90
2023-03-10T02:29:05.881Z,99.90
2023-03-10T02:34:07.934Z,99.90
2023-03-10T02:39:09.780Z,99.90
2023-03-10T02:44:14.002Z,99.90
2023-03-10T02:49:17.393Z,99.90
2023-03-10T02:54:19.246Z,99.90
2023-03-10T02:59:21.054Z,99.90
2023-03-10T03:04:23.165Z,99.90
2023-03-10T03:09:25.020Z,99.90
2023-03-10T03:14:27.528Z,99.90
2023-03-10T03:19:29.977Z,99.90
2023-03-10T03:24:32.561Z,99.90
2023-03-10T03:29:34.375Z,99.90
2023-03-10T03:34:36.265Z,99.90
2023-03-10T03:39:38.136Z,99.90
2023-03-10T03:44:39.953Z,99.90
2023-03-10T03:49:42.225Z,99.90
2023-03-10T03:54:44.151Z,99.90
2023-03-10T03:59:49.396Z,99.90
2023-03-10T04:04:53.788Z,99.90
2023-03-10T04:09:55.643Z,99.90
2023-03-10T04:14:57.534Z,99.90
2023-03-10T04:20:06.935Z,99.90
2023-03-10T04:25:12.784Z,99.90
2023-03-10T04:30:15.142Z,99.90
2023-03-10T04:35:17.170Z,99.90
2023-03-10T04:40:19.286Z,99.90
2023-03-10T04:45:21.205Z,99.90
2023-03-10T04:50:23.075Z,99.90
2023-03-10T04:55:24.958Z,99.90
2023-03-10T05:00:27.097Z,99.90
2023-03-10T05:05:28.926Z,99.90
2023-03-10T05:10:30.888Z,99.90
2023-03-10T05:15:35.590Z,99.90
2023-03-10T05:20:37.718Z,99.90
2023-03-10T05:25:40.614Z,99.90
2023-03-10T05:30:42.560Z,99.90
2023-03-10T05:35:44.425Z,99.90
2023-03-10T05:40:47.861Z,99.90
2023-03-10T05:45:57.949Z,99.90
2023-03-10T05:51:05.152Z,99.90
2023-03-10T05:56:13.213Z,99.90
2023-03-10T06:01:15.225Z,99.90
2023-03-10T06:06:17.048Z,99.90
2023-03-10T06:11:18.872Z,99.90
2023-03-10T06:16:20.811Z,99.90
2023-03-10T06:21:22.843Z,99.90
2023-03-10T06:26:27.906Z,99.90
2023-03-10T06:31:30.003Z,99.90
2023-03-10T06:36:32.618Z,99.70
2023-03-10T06:41:36.081Z,99.60
2023-03-10T06:46:38.636Z,97.90
2023-03-10T06:51:40.788Z,96.80
2023-03-10T06:56:42.719Z,96.60
2023-03-10T07:01:44.899Z,97.10
2023-03-10T07:06:46.773Z,97.00
2023-03-10T07:11:48.552Z,96.40
2023-03-10T07:16:50.486Z,96.60
2023-03-10T07:21:53.378Z,95.70
2023-03-10T07:26:55.264Z,95.70
2023-03-10T07:31:57.466Z,95.70
2023-03-10T07:36:59.259Z,95.10
2023-03-10T07:42:01.081Z,95.30
2023-03-10T07:47:02.956Z,95.20
2023-03-10T07:52:06.965Z,95.00
2023-03-10T07:57:15.590Z,94.30
2023-03-10T08:02:17.448Z,94.10
2023-03-10T08:07:19.250Z,93.80
2023-03-10T08:12:21.682Z,93.20
2023-03-10T08:17:30.435Z,92.70
2023-03-10T08:22:32.616Z,91.70
2023-03-10T08:27:34.443Z,91.00
2023-03-10T08:32:36.478Z,90.80
2023-03-10T08:37:39.370Z,90.70
2023-03-10T08:42:41.257Z,89.80
2023-03-10T08:47:46.152Z,87.90
2023-03-10T08:52:48.737Z,86.10
2023-03-10T08:57:51.132Z,81.40
2023-03-10T09:02:53.534Z,81.70
2023-03-10T09:07:56.022Z,79.50
2023-03-10T09:13:12.893Z,77.70
2023-03-10T09:18:17.068Z,75.70
2023-03-10T09:23:19.013Z,75.90
2023-03-10T09:28:22.934Z,72.00
2023-03-10T09:33:25.282Z,72.80
2023-03-10T09:38:27.070Z,73.00
2023-03-10T09:43:30.863Z,73.20
2023-03-10T09:48:53.368Z,66.90
2023-03-10T09:54:13.369Z,68.40
2023-03-10T09:59:18.733Z,66.40
2023-03-10T10:04:26.831Z,65.90
2023-03-10T10:09:43.245Z,64.30
2023-03-10T10:14:56.696Z,66.00
2023-03-10T10:19:59.279Z,64.70
2023-03-10T10:25:08.516Z,65.90
2023-03-10T10:30:32.560Z,63.90
2023-03-10T10:35:46.359Z,63.60
2023-03-10T10:41:05.098Z,62.70
2023-03-10T10:46:09.235Z,62.10
2023-03-10T10:51:27.209Z,62.80
2023-03-10T10:56:29.658Z,62.40
2023-03-10T11:01:54.297Z,62.00
2023-03-10T11:07:25.372Z,59.90
2023-03-10T11:12:31.811Z,58.20
2023-03-10T11:17:48.562Z,57.70
2023-03-10T11:22:58.975Z,58.70
2023-03-10T11:28:12.828Z,59.60
2023-03-10T11:33:23.288Z,60.60
2023-03-10T11:38:42.341Z,59.70
2023-03-10T11:43:54.432Z,61.00
2023-03-10T11:49:10.820Z,61.50
2023-03-10T11:54:14.518Z,62.30
2023-03-10T11:59:20.316Z,63.40
2023-03-10T12:04:31.009Z,63.00
2023-03-10T12:09:46.773Z,63.60
2023-03-10T12:14:49.985Z,63.10
2023-03-10T12:20:29.498Z,64.10
2023-03-10T12:25:33.194Z,64.00
2023-03-10T12:30:50.916Z,64.50
2023-03-10T12:35:55.626Z,65.00
2023-03-10T12:40:58.196Z,64.80
2023-03-10T12:46:01.874Z,64.70
2023-03-10T12:51:10.806Z,63.60
2023-03-10T12:56:13.447Z,63.80
2023-03-10T13:01:22.515Z,63.10
2023-03-10T13:06:35.581Z,62.40
2023-03-10T13:12:06.717Z,61.10
2023-03-10T13:17:24.028Z,60.70
2023-03-10T13:22:26.148Z,61.60
2023-03-10T13:27:33.494Z,61.50
2023-03-10T13:32:35.415Z,63.50
2023-03-10T13:37:37.284Z,63.10
2023-03-10T13:42:44.182Z,60.50
2023-03-10T13:47:47.291Z,60.90
2023-03-10T13:52:58.025Z,60.20
2023-03-10T13:57:59.920Z,60.50
2023-03-10T14:03:02.553Z,60.10
2023-03-10T14:08:04.906Z,58.90
2023-03-10T14:13:42.622Z,59.20
2023-03-10T14:18:44.556Z,60.20
2023-03-10T14:23:46.348Z,60.20
2023-03-10T14:28:48.151Z,61.50
2023-03-10T14:33:50.303Z,61.50
2023-03-10T14:38:52.117Z,61.60
2023-03-10T14:43:53.976Z,61.80
2023-03-10T14:48:55.927Z,62.00
2023-03-10T14:53:57.744Z,62.40
2023-03-10T14:59:02.328Z,61.40
2023-03-10T15:04:19.933Z,62.20
2023-03-10T15:09:23.934Z,62.60
2023-03-10T15:14:27.223Z,62.80
2023-03-10T15:19:31.360Z,63.70
2023-03-10T15:24:33.292Z,64.10
2023-03-10T15:29:35.121Z,64.00
2023-03-10T15:34:38.553Z,65.30
2023-03-10T15:39:40.441Z,66.10
2023-03-10T15:44:42.650Z,66.10
2023-03-10T15:49:44.555Z,65.90
2023-03-10T15:54:46.460Z,66.30
2023-03-10T15:59:48.538Z,66.60
2023-03-10T16:04:51.171Z,66.50
2023-03-10T16:09:53.137Z,66.90
2023-03-10T16:14:57.958Z,67.40
2023-03-10T16:20:02.171Z,68.10
2023-03-10T16:25:04.463Z,68.60
2023-03-10T16:30:10.740Z,68.80
2023-03-10T16:35:13.104Z,69.30
2023-03-10T16:40:15.340Z,69.80
2023-03-10T16:45:17.266Z,70.10
2023-03-10T16:50:25.004Z,69.30
2023-03-10T16:55:26.838Z,69.70
2023-03-10T17:00:28.752Z,70.00
2023-03-10T17:05:32.829Z,70.10
2023-03-10T17:10:37.169Z,70.40
2023-03-10T17:15:39.124Z,70.70
2023-03-10T17:20:41.362Z,70.90
2023-03-10T17:25:45.668Z,71.30
2023-03-10T17:30:48.766Z,71.70
2023-03-10T17:35:50.717Z,72.00
2023-03-10T17:40:53.581Z,72.60
2023-03-10T17:45:56.903Z,73.30
2023-03-10T17:50:59.201Z,73.90
2023-03-10T17:56:06.245Z,74.30
2023-03-10T18:01:14.830Z,74.70
2023-03-10T18:06:20.174Z,75.10
2023-03-10T18:11:22.222Z,75.70
2023-03-10T18:16:26.506Z,76.20
2023-03-10T18:21:28.516Z,76.40
2023-03-10T18:26:30.789Z,76.90
2023-03-10T18:31:34.453Z,77.10
2023-03-10T18:36:36.351Z,77.30
2023-03-10T18:41:38.202Z,77.50
2023-03-10T18:46:40.080Z,77.60
2023-03-10T18:51:42.063Z,77.60
2023-03-10T18:56:44.300Z,78.00
2023-03-10T19:01:46.203Z,77.60
2023-03-10T19:06:48.219Z,77.80
2023-03-10T19:11:53.459Z,77.60
2023-03-10T19:16:55.402Z,77.80
2023-03-10T19:21:57.421Z,78.10
2023-03-10T19:26:59.272Z,78.10
2023-03-10T19:32:01.103Z,78.40
2023-03-10T19:37:04.062Z,78.80
2023-03-10T19:42:06.441Z,79.00
2023-03-10T19:47:08.339Z,79.40
2023-03-10T19:52:10.347Z,79.80
2023-03-10T19:57:13.719Z,80.50
2023-03-10T20:02:17.319Z,81.50
2023-03-10T20:07:22.385Z,82.20
2023-03-10T20:12:24.993Z,83.30
2023-03-10T20:17:27.694Z,84.10
2023-03-10T20:22:29.515Z,84.80
2023-03-10T20:27:31.359Z,85.50
2023-03-10T20:32:33.693Z,86.10
2023-03-10T20:37:37.745Z,86.20
2023-03-10T20:42:41.407Z,86.30
2023-03-10T20:47:43.314Z,86.40
2023-03-10T20:52:47.403Z,86.40
2023-03-10T20:57:50.310Z,86.70
2023-03-10T21:02:53.151Z,86.20
2023-03-10T21:07:56.538Z,86.10
2023-03-10T21:12:58.494Z,85.80
2023-03-10T21:18:00.339Z,85.60
2023-03-10T21:23:02.207Z,85.80
2023-03-10T21:28:04.119Z,85.90
2023-03-10T21:33:05.966Z,86.00
2023-03-10T21:38:07.896Z,86.50
2023-03-10T21:43:10.593Z,86.90
2023-03-10T21:48:12.428Z,87.90
2023-03-10T21:53:14.702Z,88.00
2023-03-10T21:58:16.622Z,88.30
2023-03-10T22:03:18.532Z,88.40
2023-03-10T22:08:23.801Z,88.70
2023-03-10T22:13:25.750Z,87.70
2023-03-10T22:18:28.244Z,86.00
2023-03-10T22:23:30.432Z,83.60
2023-03-10T22:28:32.768Z,81.30
2023-03-10T22:33:35.472Z,80.50
2023-03-10T22:38:38.985Z,81.50
2023-03-10T22:43:41.599Z,80.70
2023-03-10T22:48:44.413Z,79.30
2023-03-10T22:53:47.176Z,77.40
2023-03-10T22:58:51.651Z,76.60
2023-03-10T23:03:55.259Z,76.80
2023-03-10T23:08:57.286Z,76.50
2023-03-10T23:14:03.523Z,76.10
2023-03-10T23:19:08.488Z,73.50
2023-03-10T23:24:10.585Z,72.00
2023-03-10T23:29:14.073Z,71.00
2023-03-10T23:34:17.364Z,70.80
2023-03-10T23:39:19.386Z,72.10
2023-03-10T23:44:21.238Z,72.00
2023-03-10T23:49:23.226Z,72.10
2023-03-10T23:54:25.086Z,72.40
2023-03-10T23:59:27.042Z,72.80
